Consulta los datos en tiempo real de la estación municipal de Seva
| Hora UTC | 06:45 |
|---|---|
| Temperatura | 8.8 ºC |
| Suelo 15 cm | 9.1 ºC |
| Humedad | 99.4 % |
| Presión | 1014.3 hPa |
| Pluja | 0.0 mm |
| Velocidad viento | 4.6 km/h |
| Dirección viento | NNE |
| Radiación solar | 131.1 W/m² |
| Temperatura (ºC) | Humedad (%) | Presión (hPa) | Velocidad viento (km/h) | Precipitación (mm) | Radiación solar (W/m²) | ||||||||||||||
|---|---|---|---|---|---|---|---|---|---|---|---|---|---|---|---|---|---|---|---|
| Hora UTC | Aire | Suelo 15 cm | Humedad | Presión | Vel. | Dir. | Vel. Max | Dir. | Intent. máx 5 min. | Rad. Sol. | |||||||||
| 00:05 | 8.4 | 6.4 | 98.7 | 1014.1 | 0.8 | SSE | 0.8 | SE | 0.0 | 0.1 | |||||||||
| 00:10 | 8.2 | 6.4 | 98.6 | 1014.2 | 0.3 | NNE | 2.8 | NE | 0.0 | 0.1 | |||||||||
| 00:15 | 8.1 | 6.4 | 98.7 | 1014.2 | 2.2 | ENE | 3.9 | NE | 0.0 | 0.1 | |||||||||
| 00:20 | 8.0 | 6.3 | 98.7 | 1014.1 | 2.2 | ENE | 3.9 | NE | 0.0 | 0.1 | |||||||||
| 00:25 | 8.0 | 6.3 | 98.7 | 1014.1 | 4.5 | E | 6.0 | ENE | 0.0 | 0.1 | |||||||||
| 00:30 | 7.9 | 6.3 | 98.8 | 1014.1 | 5.2 | ESE | 9.9 | ESE | 0.0 | 0.1 | |||||||||
| 00:35 | 8.1 | 6.3 | 99.1 | 1014.0 | 6.3 | E | 9.2 | ESE | 0.0 | 0.1 | |||||||||
| 00:40 | 8.2 | 6.5 | 99.0 | 1014.1 | 4.4 | ESE | 7.4 | ESE | 0.0 | 0.1 | |||||||||
| 00:45 | 8.1 | 6.6 | 98.9 | 1014.1 | 3.2 | E | 7.8 | E | 0.0 | 0.1 | |||||||||
| 00:50 | 8.2 | 6.4 | 99.1 | 1014.0 | 5.6 | E | 8.5 | ENE | 0.0 | 0.1 | |||||||||
| 00:55 | 8.5 | 6.7 | 99.3 | 1013.9 | 7.1 | E | 9.5 | E | 0.0 | 0.1 | |||||||||
| 01:00 | 8.5 | 6.9 | 99.1 | 1013.9 | 6.4 | E | 8.1 | E | 0.0 | 0.1 | |||||||||
| 01:05 | 8.4 | 6.9 | 98.9 | 1013.9 | 4.7 | NE | 8.5 | ESE | 0.0 | 0.1 | |||||||||
| 01:10 | 8.2 | 6.8 | 98.8 | 1014.0 | 5.7 | E | 7.8 | E | 0.0 | 0.1 | |||||||||
| 01:15 | 8.1 | 6.7 | 98.9 | 1013.9 | 3.9 | E | 5.6 | ESE | 0.0 | 0.1 | |||||||||
| 01:20 | 8.1 | 6.5 | 98.8 | 1013.9 | 3.2 | ESE | 3.9 | ESE | 0.0 | 0.1 | |||||||||
| 01:25 | 7.9 | 6.3 | 98.8 | 1014.0 | 2.6 | SE | 3.9 | SE | 0.0 | 0.1 | |||||||||
| 01:30 | 7.9 | 6.3 | 99.0 | 1013.9 | 3.7 | SE | 4.9 | ESE | 0.0 | 0.1 | |||||||||
| 01:35 | 8.0 | 6.3 | 99.0 | 1013.8 | 3.4 | ESE | 5.6 | E | 0.0 | 0.1 | |||||||||
| 01:40 | 8.1 | 6.3 | 99.2 | 1013.8 | 3.4 | SSE | 6.7 | SSE | 0.0 | 0.1 | |||||||||
| 01:45 | 8.2 | 6.4 | 99.2 | 1013.9 | 2.1 | SSW | 6.4 | S | 0.0 | 0.1 | |||||||||
| 01:50 | 8.1 | 6.3 | 99.2 | 1013.8 | 4.6 | SSE | 8.1 | SSE | 0.0 | 0.1 | |||||||||
| 01:55 | 8.2 | 6.4 | 99.3 | 1013.8 | 4.3 | SSE | 7.4 | SE | 0.0 | 0.1 | |||||||||
| 02:00 | 8.2 | 6.5 | 99.2 | 1013.8 | 4.7 | SSE | 7.4 | SSE | 0.0 | 0.1 | |||||||||
| 02:05 | 8.2 | 6.5 | 99.2 | 1013.8 | 3.9 | S | 7.4 | SSE | 0.0 | 0.1 | |||||||||
| 02:10 | 8.1 | 6.5 | 99.2 | 1013.9 | 3.1 | SSE | 6.7 | S | 0.0 | 0.1 | |||||||||
| 02:15 | 8.3 | 6.5 | 99.3 | 1013.8 | 2.5 | SE | 6.4 | SSW | 0.0 | 0.1 | |||||||||
| 02:20 | 8.1 | 6.4 | 99.0 | 1013.9 | 2.7 | E | 5.3 | E | 0.0 | 0.0 | |||||||||
| 02:25 | 7.9 | 6.3 | 98.8 | 1013.9 | 3.8 | ESE | 5.3 | E | 0.0 | 0.1 | |||||||||
| 02:30 | 7.8 | 6.1 | 98.9 | 1013.8 | 3.8 | SE | 5.6 | ESE | 0.0 | 0.1 | |||||||||
| 02:35 | 7.7 | 5.9 | 99.0 | 1013.8 | 3.0 | SE | 4.2 | SE | 0.0 | 0.1 | |||||||||
| 02:40 | 7.7 | 5.8 | 99.1 | 1013.8 | 2.5 | SE | 3.9 | SSE | 0.0 | 0.1 | |||||||||
| 02:45 | 7.5 | 5.8 | 99.0 | 1013.8 | 3.5 | SE | 4.9 | SE | 0.0 | 0.1 | |||||||||
| 02:50 | 7.5 | 5.7 | 99.0 | 1013.8 | 2.8 | ESE | 3.9 | ESE | 0.0 | 0.1 | |||||||||
| 02:55 | 7.4 | 5.7 | 99.1 | 1013.8 | 3.9 | E | 5.3 | E | 0.0 | 0.1 | |||||||||
| 03:00 | 7.3 | 5.7 | 99.0 | 1013.8 | 2.4 | NE | 4.6 | E | 0.0 | 0.1 | |||||||||
| 03:05 | 7.3 | 5.7 | 99.2 | 1013.8 | 3.5 | E | 5.6 | E | 0.0 | 0.1 | |||||||||
| 03:10 | 7.1 | 5.6 | 99.1 | 1013.8 | 3.8 | NE | 5.6 | ENE | 0.0 | 0.0 | |||||||||
| 03:15 | 7.1 | 5.5 | 99.2 | 1013.8 | 5.4 | E | 8.1 | E | 0.0 | 0.1 | |||||||||
| 03:20 | 7.1 | 5.5 | 99.2 | 1013.8 | 4.5 | E | 6.7 | ESE | 0.0 | 0.1 | |||||||||
| 03:25 | 7.1 | 5.4 | 99.3 | 1013.8 | 4.4 | E | 6.0 | ENE | 0.0 | 0.1 | |||||||||
| 03:30 | 7.1 | 5.3 | 99.3 | 1013.7 | 4.2 | E | 6.2 | E | 0.0 | 0.1 | |||||||||
| 03:35 | 7.0 | 5.3 | 99.2 | 1013.7 | 4.2 | E | 5.6 | E | 0.0 | 0.1 | |||||||||
| 03:40 | 7.0 | 5.2 | 99.3 | 1013.6 | 3.3 | E | 4.9 | ENE | 0.0 | 0.1 | |||||||||
| 03:45 | 7.0 | 5.1 | 99.4 | 1013.6 | 2.2 | E | 3.5 | ENE | 0.0 | 0.1 | |||||||||
| 03:50 | 7.0 | 5.1 | 99.3 | 1013.6 | 2.5 | E | 4.2 | NE | 0.0 | 0.1 | |||||||||
| 03:55 | 6.9 | 5.0 | 99.3 | 1013.5 | 2.6 | NE | 3.5 | NE | 0.0 | 0.1 | |||||||||
| 04:00 | 6.7 | 5.0 | 99.2 | 1013.5 | 2.7 | ENE | 3.5 | NE | 0.0 | 0.1 | |||||||||
| 04:05 | 6.7 | 4.9 | 99.3 | 1013.6 | 3.3 | ENE | 3.9 | ENE | 0.0 | 0.1 | |||||||||
| 04:10 | 6.6 | 4.9 | 99.3 | 1013.6 | 3.5 | E | 4.9 | ENE | 0.0 | 0.1 | |||||||||
| 04:15 | 6.5 | 4.9 | 99.3 | 1013.6 | 4.0 | ENE | 4.9 | ENE | 0.0 | 0.1 | |||||||||
| 04:20 | 6.5 | 4.8 | 99.4 | 1013.5 | 3.2 | ENE | 4.9 | NE | 0.0 | 0.1 | |||||||||
| 04:25 | 6.5 | 4.8 | 99.5 | 1013.5 | 2.8 | ENE | 4.2 | ENE | 0.0 | 0.1 | |||||||||
| 04:30 | 6.4 | 4.7 | 99.4 | 1013.5 | 2.6 | E | 3.5 | NE | 0.0 | 0.4 | |||||||||
| 04:35 | 6.4 | 4.7 | 99.5 | 1013.6 | 2.5 | ENE | 3.2 | E | 0.0 | 1.2 | |||||||||
| 04:40 | 6.5 | 4.7 | 99.5 | 1013.6 | 1.9 | NE | 2.8 | NE | 0.0 | 2.4 | |||||||||
| 04:45 | 6.3 | 4.6 | 99.4 | 1013.6 | 3.3 | ENE | 4.9 | ENE | 0.0 | 4.1 | |||||||||
| 04:50 | 6.3 | 4.6 | 99.5 | 1013.6 | 2.6 | ENE | 4.2 | NE | 0.0 | 6.2 | |||||||||
| 04:55 | 6.3 | 4.7 | 99.6 | 1013.6 | 1.6 | ENE | 2.8 | ENE | 0.0 | 8.4 | |||||||||
| 05:00 | 6.5 | 4.7 | 99.7 | 1013.6 | 0.1 | SE | 1.8 | SE | 0.0 | 11.2 | |||||||||
| 05:05 | 6.6 | 4.8 | 99.8 | 1013.6 | 0.3 | ESE | 1.8 | ESE | 0.0 | 14.2 | |||||||||
| 05:10 | 6.7 | 4.9 | 99.8 | 1013.7 | 0.0 | NNE | 0.0 | NE | 0.0 | 17.7 | |||||||||
| 05:15 | 6.7 | 4.9 | 99.7 | 1013.7 | 0.0 | NNE | 0.0 | NE | 0.0 | 21.6 | |||||||||
| 05:20 | 6.8 | 5.1 | 99.7 | 1013.8 | 0.9 | ESE | 2.8 | ESE | 0.0 | 21.9 | |||||||||
| 05:25 | 6.9 | 5.5 | 99.7 | 1013.9 | 2.9 | ENE | 4.9 | NE | 0.0 | 24.1 | |||||||||
| 05:30 | 7.1 | 6.1 | 99.9 | 1013.9 | 3.6 | NE | 5.6 | NE | 0.0 | 31.5 | |||||||||
| 05:35 | 7.4 | 6.7 | 100.0 | 1013.9 | 3.0 | NE | 4.9 | NE | 0.0 | 29.3 | |||||||||
| 05:40 | 7.7 | 7.1 | 99.9 | 1014.0 | 3.5 | NE | 5.6 | NNE | 0.0 | 42.1 | |||||||||
| 05:45 | 8.0 | 7.5 | 99.9 | 1014.0 | 3.4 | NNE | 5.6 | NNE | 0.0 | 43.1 | |||||||||
| 05:50 | 8.3 | 7.8 | 99.9 | 1014.0 | 3.2 | NNE | 6.7 | NNE | 0.0 | 60.9 | |||||||||
| 05:55 | 8.3 | 8.1 | 99.7 | 1014.0 | 4.1 | NNE | 7.8 | NE | 0.0 | 70.6 | |||||||||
| 06:00 | 8.4 | 8.3 | 99.6 | 1014.0 | 4.4 | NE | 9.5 | NE | 0.0 | 63.7 | |||||||||
| 06:05 | 8.4 | 8.4 | 99.6 | 1013.9 | 4.2 | NE | 9.5 | NNE | 0.0 | 71.8 | |||||||||
| 06:10 | 8.4 | 8.4 | 99.5 | 1014.0 | 5.5 | NNE | 9.9 | NNE | 0.0 | 78.2 | |||||||||
| 06:15 | 8.5 | 8.5 | 99.5 | 1014.1 | 5.6 | N | 8.8 | NNW | 0.0 | 75.7 | |||||||||
| 06:20 | 8.5 | 8.6 | 99.5 | 1014.1 | 5.2 | N | 8.5 | N | 0.0 | 93.1 | |||||||||
| 06:25 | 8.6 | 8.7 | 99.5 | 1014.1 | 2.5 | NNE | 7.1 | NNE | 0.0 | 88.3 | |||||||||
| 06:30 | 8.6 | 8.7 | 99.3 | 1014.2 | 5.2 | NNE | 8.5 | NNE | 0.0 | 90.8 | |||||||||
| 06:35 | 8.5 | 8.7 | 99.3 | 1014.2 | 3.2 | NNE | 7.4 | NE | 0.0 | 100.3 | |||||||||
| 06:40 | 8.8 | 9.0 | 99.5 | 1014.2 | 6.0 | N | 10.2 | N | 0.0 | 106.5 | |||||||||
| 06:45 | 8.8 | 9.1 | 99.4 | 1014.3 | 4.6 | NNE | 9.5 | N | 0.0 | 131.1 | |||||||||
| Máxima | 8.8 | 9.1 | 100.0 | 1014.3 | 7.1 | E | 10.2 | N | 0.0 | 131.1 | |||||||||
| Mínima | 6.3 | 4.6 | 98.6 | 1013.5 | |||||||||||||||
| Total | 0.0 | ||||||||||||||||||